Herricks, New York
Current Conditions -  °F | °C
As of 12:51 PM on Sunday 21 Dec 2014 (Local Time) from KJFK Reporting Station
Overcast Overcast  
Wind Chill: 28°   Ceiling: 1500
Heat Index: 36°   Visibility: 10mi
Dew Point: 27°   Wind: 10mph
Humidity: 70%   Direction: 330°NNW
Pressure: 30.3"   Gusts: NA
Location:  40.7459°N, 73.6798°W
Report Text: KJFK 211751Z 33009KT 10SM BKN015 OVC023 02/M03 A3030 RMK AO2 SLP259 T00221028 10022 20011 58010 $
Loading
Personal Weather Stations






























Interactive Weather Map New forecast layout! Learn more

10-Day Weather Forecast

Advertisements
Track Severe Weather on mobile